sensor_id;sensor_type;location;lat;lon;timestamp;pressure;altitude;pressure_sealevel;temperature;humidity
68329;BME280;55182;56.864;60.554;2022-12-18T00:00:29;78261.38;;;-143.60;82.26
68329;BME280;55182;56.864;60.554;2022-12-18T00:02:55;78257.34;;;-143.60;82.24
68329;BME280;55182;56.864;60.554;2022-12-18T00:05:20;78255.34;;;-143.60;81.98
68329;BME280;55182;56.864;60.554;2022-12-18T00:07:46;78245.28;;;-143.60;81.88
68329;BME280;55182;56.864;60.554;2022-12-18T00:10:11;78241.28;;;-143.60;81.84
68329;BME280;55182;56.864;60.554;2022-12-18T00:12:36;78235.25;;;-143.60;81.70
68329;BME280;55182;56.864;60.554;2022-12-18T00:15:02;78233.22;;;-143.60;81.62
68329;BME280;55182;56.864;60.554;2022-12-18T00:17:27;78233.22;;;-143.60;81.49
68329;BME280;55182;56.864;60.554;2022-12-18T00:19:53;78237.25;;;-143.60;81.22
68329;BME280;55182;56.864;60.554;2022-12-18T00:22:18;78241.28;;;-143.60;81.23
68329;BME280;55182;56.864;60.554;2022-12-18T00:24:44;78253.34;;;-143.60;81.26
68329;BME280;55182;56.864;60.554;2022-12-18T00:27:09;78255.34;;;-143.60;81.15
68329;BME280;55182;56.864;60.554;2022-12-18T00:29:35;78257.34;;;-143.60;81.31
68329;BME280;55182;56.864;60.554;2022-12-18T00:32:00;78263.38;;;-143.60;81.57
68329;BME280;55182;56.864;60.554;2022-12-18T00:34:25;78269.41;;;-143.60;81.41
68329;BME280;55182;56.864;60.554;2022-12-18T00:36:51;78273.44;;;-143.60;81.75
68329;BME280;55182;56.864;60.554;2022-12-18T00:39:16;78273.44;;;-143.60;81.66
68329;BME280;55182;56.864;60.554;2022-12-18T00:41:43;78269.41;;;-143.60;81.79
68329;BME280;55182;56.864;60.554;2022-12-18T00:44:10;78259.38;;;-143.60;81.62
68329;BME280;55182;56.864;60.554;2022-12-18T00:46:35;78249.31;;;-143.60;81.49
68329;BME280;55182;56.864;60.554;2022-12-18T00:49:01;78227.19;;;-143.60;81.25
68329;BME280;55182;56.864;60.554;2022-12-18T00:51:26;78225.19;;;-143.60;80.95
68329;BME280;55182;56.864;60.554;2022-12-18T00:53:52;78227.19;;;-143.60;80.65
68329;BME280;55182;56.864;60.554;2022-12-18T00:56:17;78217.16;;;-143.60;80.69
68329;BME280;55182;56.864;60.554;2022-12-18T00:58:43;78205.09;;;-143.60;80.51
68329;BME280;55182;56.864;60.554;2022-12-18T01:01:09;78197.03;;;-143.60;80.30
68329;BME280;55182;56.864;60.554;2022-12-18T01:03:34;78189.00;;;-143.60;80.11
68329;BME280;55182;56.864;60.554;2022-12-18T01:06:05;78180.97;;;-143.60;80.12
68329;BME280;55182;56.864;60.554;2022-12-18T01:08:30;78180.97;;;-143.60;79.76
68329;BME280;55182;56.864;60.554;2022-12-18T01:10:56;78168.91;;;-143.60;79.58
68329;BME280;55182;56.864;60.554;2022-12-18T01:13:21;78164.88;;;-143.60;79.55
68329;BME280;55182;56.864;60.554;2022-12-18T01:15:49;78160.84;;;-143.60;79.52
68329;BME280;55182;56.864;60.554;2022-12-18T01:18:15;78158.84;;;-143.60;79.36
68329;BME280;55182;56.864;60.554;2022-12-18T01:20:41;78156.84;;;-143.60;79.32
68329;BME280;55182;56.864;60.554;2022-12-18T01:23:06;78148.78;;;-143.60;79.46
68329;BME280;55182;56.864;60.554;2022-12-18T01:25:32;78140.75;;;-143.60;79.55
68329;BME280;55182;56.864;60.554;2022-12-18T01:27:58;78136.72;;;-143.60;79.60
68329;BME280;55182;56.864;60.554;2022-12-18T01:30:24;78136.72;;;-143.60;79.40
68329;BME280;55182;56.864;60.554;2022-12-18T01:32:52;78132.72;;;-143.60;79.35
68329;BME280;55182;56.864;60.554;2022-12-18T01:35:18;78136.72;;;-143.60;79.59
68329;BME280;55182;56.864;60.554;2022-12-18T01:37:43;78132.72;;;-143.60;79.85
68329;BME280;55182;56.864;60.554;2022-12-18T01:40:09;78126.69;;;-143.60;79.71
68329;BME280;55182;56.864;60.554;2022-12-18T01:42:34;78112.59;;;-143.60;80.02
68329;BME280;55182;56.864;60.554;2022-12-18T01:45:04;78106.56;;;-143.60;80.15
68329;BME280;55182;56.864;60.554;2022-12-18T01:50:03;78096.53;;;-143.60;80.49
68329;BME280;55182;56.864;60.554;2022-12-18T01:52:30;78098.53;;;-143.60;80.75
68329;BME280;55182;56.864;60.554;2022-12-18T01:54:56;78100.53;;;-143.60;80.79
68329;BME280;55182;56.864;60.554;2022-12-18T01:57:25;78096.53;;;-143.60;80.70
68329;BME280;55182;56.864;60.554;2022-12-18T01:59:51;78100.53;;;-143.60;80.79
68329;BME280;55182;56.864;60.554;2022-12-18T02:02:17;78090.50;;;-143.60;80.80
68329;BME280;55182;56.864;60.554;2022-12-18T02:04:42;78092.50;;;-143.60;80.93
68329;BME280;55182;56.864;60.554;2022-12-18T02:07:11;78086.47;;;-143.60;81.08
68329;BME280;55182;56.864;60.554;2022-12-18T02:14:59;78072.41;;;-143.60;81.67
68329;BME280;55182;56.864;60.554;2022-12-18T02:17:28;78060.34;;;-143.60;81.64
68329;BME280;55182;56.864;60.554;2022-12-18T02:22:24;78056.31;;;-143.60;81.69
68329;BME280;55182;56.864;60.554;2022-12-18T02:24:59;78058.31;;;-143.60;81.85
68329;BME280;55182;56.864;60.554;2022-12-18T02:27:27;78052.28;;;-143.60;81.85
68329;BME280;55182;56.864;60.554;2022-12-18T02:29:54;78052.28;;;-143.60;82.06
68329;BME280;55182;56.864;60.554;2022-12-18T02:32:25;78052.28;;;-143.60;82.40
68329;BME280;55182;56.864;60.554;2022-12-18T02:34:52;78052.28;;;-143.60;82.32
68329;BME280;55182;56.864;60.554;2022-12-18T02:37:22;78048.28;;;-143.60;82.57
68329;BME280;55182;56.864;60.554;2022-12-18T02:39:49;78050.28;;;-143.60;82.57
68329;BME280;55182;56.864;60.554;2022-12-18T02:42:15;78048.28;;;-143.60;82.63
68329;BME280;55182;56.864;60.554;2022-12-18T02:44:42;78046.25;;;-143.60;82.73
68329;BME280;55182;56.864;60.554;2022-12-18T02:47:09;78040.22;;;-143.60;82.70
68329;BME280;55182;56.864;60.554;2022-12-18T02:52:24;78052.28;;;-143.60;82.73
68329;BME280;55182;56.864;60.554;2022-12-18T02:55:14;78048.28;;;-143.60;82.68
68329;BME280;55182;56.864;60.554;2022-12-18T03:00:28;78044.25;;;-143.60;82.69
68329;BME280;55182;56.864;60.554;2022-12-18T03:03:03;78036.22;;;-143.60;82.67
68329;BME280;55182;56.864;60.554;2022-12-18T03:05:49;78028.16;;;-143.60;82.73
68329;BME280;55182;56.864;60.554;2022-12-18T03:08:18;78028.16;;;-143.60;82.86
68329;BME280;55182;56.864;60.554;2022-12-18T03:10:49;78028.16;;;-143.60;82.67
68329;BME280;55182;56.864;60.554;2022-12-18T03:13:19;78036.22;;;-143.60;82.66
68329;BME280;55182;56.864;60.554;2022-12-18T03:15:48;78018.09;;;-143.60;82.74
68329;BME280;55182;56.864;60.554;2022-12-18T03:18:35;78004.03;;;-143.60;82.80
68329;BME280;55182;56.864;60.554;2022-12-18T03:21:04;78000.03;;;-143.60;82.84
68329;BME280;55182;56.864;60.554;2022-12-18T03:23:36;77996.00;;;-143.60;82.73
68329;BME280;55182;56.864;60.554;2022-12-18T03:26:07;77998.00;;;-143.60;82.82
68329;BME280;55182;56.864;60.554;2022-12-18T03:28:38;78004.03;;;-143.60;82.95
68329;BME280;55182;56.864;60.554;2022-12-18T03:31:07;77998.00;;;-143.60;82.92
68329;BME280;55182;56.864;60.554;2022-12-18T03:33:55;78000.03;;;-143.60;83.03
68329;BME280;55182;56.864;60.554;2022-12-18T03:36:30;78006.06;;;-143.60;82.98
68329;BME280;55182;56.864;60.554;2022-12-18T03:38:57;78012.09;;;-143.60;82.79
68329;BME280;55182;56.864;60.554;2022-12-18T03:46:47;78014.09;;;-143.60;82.31
68329;BME280;55182;56.864;60.554;2022-12-18T03:49:27;78018.09;;;-143.60;82.22
68329;BME280;55182;56.864;60.554;2022-12-18T03:52:01;78020.13;;;-143.60;81.88
68329;BME280;55182;56.864;60.554;2022-12-18T03:54:27;78020.13;;;-143.60;81.95
68329;BME280;55182;56.864;60.554;2022-12-18T03:57:09;78024.16;;;-143.60;81.62
68329;BME280;55182;56.864;60.554;2022-12-18T03:59:36;78028.16;;;-143.60;81.75
68329;BME280;55182;56.864;60.554;2022-12-18T04:02:03;78044.25;;;-143.60;81.65
68329;BME280;55182;56.864;60.554;2022-12-18T04:04:30;78044.25;;;-143.60;81.66
68329;BME280;55182;56.864;60.554;2022-12-18T04:06:59;78036.22;;;-143.60;81.51
68329;BME280;55182;56.864;60.554;2022-12-18T04:09:25;78040.22;;;-143.60;81.61
68329;BME280;55182;56.864;60.554;2022-12-18T04:11:52;78032.19;;;-143.60;81.71
68329;BME280;55182;56.864;60.554;2022-12-18T04:14:17;78040.22;;;-143.60;81.73
68329;BME280;55182;56.864;60.554;2022-12-18T04:16:43;78044.25;;;-143.60;81.63
68329;BME280;55182;56.864;60.554;2022-12-18T04:19:12;78038.22;;;-143.60;81.78
68329;BME280;55182;56.864;60.554;2022-12-18T04:21:41;78044.25;;;-143.60;81.98
68329;BME280;55182;56.864;60.554;2022-12-18T04:24:08;78046.25;;;-143.60;82.14
68329;BME280;55182;56.864;60.554;2022-12-18T04:26:36;78048.28;;;-143.60;81.98
68329;BME280;55182;56.864;60.554;2022-12-18T04:29:22;78056.31;;;-143.60;82.27
68329;BME280;55182;56.864;60.554;2022-12-18T04:31:48;78052.28;;;-143.60;82.29
68329;BME280;55182;56.864;60.554;2022-12-18T04:34:14;78052.28;;;-143.60;82.08
68329;BME280;55182;56.864;60.554;2022-12-18T04:36:46;78054.31;;;-143.60;82.19
68329;BME280;55182;56.864;60.554;2022-12-18T04:39:13;78060.34;;;-143.60;82.24
68329;BME280;55182;56.864;60.554;2022-12-18T04:41:40;78052.28;;;-143.60;82.15
68329;BME280;55182;56.864;60.554;2022-12-18T04:44:05;78044.25;;;-143.60;81.98
68329;BME280;55182;56.864;60.554;2022-12-18T04:46:31;78044.25;;;-143.60;82.03
68329;BME280;55182;56.864;60.554;2022-12-18T04:48:56;78040.22;;;-143.60;82.09
68329;BME280;55182;56.864;60.554;2022-12-18T04:51:21;78036.22;;;-143.60;81.93
68329;BME280;55182;56.864;60.554;2022-12-18T04:53:47;78032.19;;;-143.60;81.99
68329;BME280;55182;56.864;60.554;2022-12-18T04:56:13;78024.16;;;-143.60;81.93
68329;BME280;55182;56.864;60.554;2022-12-18T04:58:40;78018.09;;;-143.60;82.02
68329;BME280;55182;56.864;60.554;2022-12-18T05:01:06;78008.06;;;-143.60;81.89
68329;BME280;55182;56.864;60.554;2022-12-18T05:03:32;77996.00;;;-143.60;81.60
68329;BME280;55182;56.864;60.554;2022-12-18T05:05:57;77998.00;;;-143.60;81.45
68329;BME280;55182;56.864;60.554;2022-12-18T05:08:22;77991.97;;;-143.60;81.43
68329;BME280;55182;56.864;60.554;2022-12-18T05:10:48;77989.97;;;-143.60;81.20
68329;BME280;55182;56.864;60.554;2022-12-18T05:13:14;77981.94;;;-143.60;81.47
68329;BME280;55182;56.864;60.554;2022-12-18T05:15:39;77971.88;;;-143.60;81.23
68329;BME280;55182;56.864;60.554;2022-12-18T05:18:05;77963.84;;;-143.60;80.87
68329;BME280;55182;56.864;60.554;2022-12-18T05:20:31;77959.81;;;-143.60;80.83
68329;BME280;55182;56.864;60.554;2022-12-18T05:22:57;77953.78;;;-143.60;80.61
68329;BME280;55182;56.864;60.554;2022-12-18T05:25:22;77945.75;;;-143.60;80.69
68329;BME280;55182;56.864;60.554;2022-12-18T05:27:48;77939.72;;;-143.60;80.65
68329;BME280;55182;56.864;60.554;2022-12-18T05:30:14;77939.72;;;-143.60;80.57
68329;BME280;55182;56.864;60.554;2022-12-18T05:32:40;77931.66;;;-143.60;80.55
68329;BME280;55182;56.864;60.554;2022-12-18T05:35:06;77927.66;;;-143.60;80.29
68329;BME280;55182;56.864;60.554;2022-12-18T05:37:32;77913.56;;;-143.60;80.36
68329;BME280;55182;56.864;60.554;2022-12-18T05:39:58;77909.56;;;-143.60;80.42
68329;BME280;55182;56.864;60.554;2022-12-18T05:42:24;77903.53;;;-143.60;80.43
68329;BME280;55182;56.864;60.554;2022-12-18T05:44:49;77901.50;;;-143.60;80.70
68329;BME280;55182;56.864;60.554;2022-12-18T05:47:15;77891.47;;;-143.60;80.79
68329;BME280;55182;56.864;60.554;2022-12-18T05:49:41;77891.47;;;-143.60;80.94
68329;BME280;55182;56.864;60.554;2022-12-18T05:52:07;77883.41;;;-143.60;80.67
68329;BME280;55182;56.864;60.554;2022-12-18T05:54:32;77875.38;;;-143.60;80.38
68329;BME280;55182;56.864;60.554;2022-12-18T05:56:58;77859.28;;;-143.60;80.30
68329;BME280;55182;56.864;60.554;2022-12-18T05:59:23;77859.28;;;-143.60;79.95
68329;BME280;55182;56.864;60.554;2022-12-18T06:01:49;77849.25;;;-143.60;79.94
68329;BME280;55182;56.864;60.554;2022-12-18T06:04:14;77841.19;;;-143.60;79.50
68329;BME280;55182;56.864;60.554;2022-12-18T06:06:40;77837.19;;;-143.60;79.61
68329;BME280;55182;56.864;60.554;2022-12-18T06:09:05;77835.16;;;-143.60;79.76
68329;BME280;55182;56.864;60.554;2022-12-18T06:11:31;77823.09;;;-143.60;79.76
68329;BME280;55182;56.864;60.554;2022-12-18T06:13:56;77819.09;;;-143.60;79.86
68329;BME280;55182;56.864;60.554;2022-12-18T06:16:22;77811.03;;;-143.60;79.92
68329;BME280;55182;56.864;60.554;2022-12-18T06:18:47;77805.00;;;-143.60;79.63
68329;BME280;55182;56.864;60.554;2022-12-18T06:21:13;77809.03;;;-143.60;79.77
68329;BME280;55182;56.864;60.554;2022-12-18T06:23:38;77807.03;;;-143.60;79.90
68329;BME280;55182;56.864;60.554;2022-12-18T06:26:10;77803.00;;;-143.60;79.75
68329;BME280;55182;56.864;60.554;2022-12-18T06:28:36;77794.97;;;-143.60;79.71
68329;BME280;55182;56.864;60.554;2022-12-18T06:31:04;77803.00;;;-143.60;79.54
68329;BME280;55182;56.864;60.554;2022-12-18T06:33:30;77803.00;;;-143.60;79.90
68329;BME280;55182;56.864;60.554;2022-12-18T06:36:14;77798.97;;;-143.60;79.94
68329;BME280;55182;56.864;60.554;2022-12-18T06:38:40;77794.97;;;-143.60;80.09
68329;BME280;55182;56.864;60.554;2022-12-18T06:41:10;77790.94;;;-143.60;80.10
68329;BME280;55182;56.864;60.554;2022-12-18T06:43:35;77786.91;;;-143.60;79.83
68329;BME280;55182;56.864;60.554;2022-12-18T06:46:01;77774.84;;;-143.60;80.00
68329;BME280;55182;56.864;60.554;2022-12-18T06:48:27;77760.78;;;-143.60;79.96
68329;BME280;55182;56.864;60.554;2022-12-18T06:50:53;77750.72;;;-143.60;79.89
68329;BME280;55182;56.864;60.554;2022-12-18T06:53:18;77754.75;;;-143.60;79.94
68329;BME280;55182;56.864;60.554;2022-12-18T06:55:44;77746.72;;;-143.60;79.41
68329;BME280;55182;56.864;60.554;2022-12-18T06:58:10;77740.69;;;-143.60;79.40
68329;BME280;55182;56.864;60.554;2022-12-18T07:00:35;77734.66;;;-143.60;79.32
68329;BME280;55182;56.864;60.554;2022-12-18T07:03:01;77728.63;;;-143.60;79.32
68329;BME280;55182;56.864;60.554;2022-12-18T07:05:26;77714.56;;;-143.60;79.25
68329;BME280;55182;56.864;60.554;2022-12-18T07:07:52;77708.53;;;-143.60;79.13
68329;BME280;55182;56.864;60.554;2022-12-18T07:10:17;77708.53;;;-143.60;79.16
68329;BME280;55182;56.864;60.554;2022-12-18T07:12:43;77702.50;;;-143.60;79.23
68329;BME280;55182;56.864;60.554;2022-12-18T07:15:09;77694.44;;;-143.60;79.31
68329;BME280;55182;56.864;60.554;2022-12-18T07:17:35;77676.34;;;-143.60;79.41
68329;BME280;55182;56.864;60.554;2022-12-18T07:20:00;77666.31;;;-143.60;79.39
68329;BME280;55182;56.864;60.554;2022-12-18T07:22:26;77666.31;;;-143.60;79.10
68329;BME280;55182;56.864;60.554;2022-12-18T07:24:51;77666.31;;;-143.60;79.18
68329;BME280;55182;56.864;60.554;2022-12-18T07:27:17;77662.28;;;-143.60;79.34
68329;BME280;55182;56.864;60.554;2022-12-18T07:29:42;77662.28;;;-143.60;79.49
68329;BME280;55182;56.864;60.554;2022-12-18T07:32:08;77666.31;;;-143.60;79.50
68329;BME280;55182;56.864;60.554;2022-12-18T07:34:34;77670.31;;;-143.60;79.73
68329;BME280;55182;56.864;60.554;2022-12-18T07:36:59;77670.31;;;-143.60;80.00
68329;BME280;55182;56.864;60.554;2022-12-18T07:39:25;77668.31;;;-143.60;79.91
68329;BME280;55182;56.864;60.554;2022-12-18T07:41:50;77674.34;;;-143.60;80.03
68329;BME280;55182;56.864;60.554;2022-12-18T07:44:16;77676.34;;;-143.60;79.99
68329;BME280;55182;56.864;60.554;2022-12-18T07:46:41;77674.34;;;-143.60;80.07
68329;BME280;55182;56.864;60.554;2022-12-18T07:49:06;77674.34;;;-143.60;80.27
68329;BME280;55182;56.864;60.554;2022-12-18T07:51:32;77660.28;;;-143.60;80.54
68329;BME280;55182;56.864;60.554;2022-12-18T07:53:57;77662.28;;;-143.60;80.43
68329;BME280;55182;56.864;60.554;2022-12-18T07:56:23;77654.25;;;-143.60;80.50
68329;BME280;55182;56.864;60.554;2022-12-18T07:58:48;77652.22;;;-143.60;80.54
68329;BME280;55182;56.864;60.554;2022-12-18T08:01:13;77652.22;;;-143.60;80.81
68329;BME280;55182;56.864;60.554;2022-12-18T08:03:39;77654.25;;;-143.60;80.61
68329;BME280;55182;56.864;60.554;2022-12-18T08:06:06;77650.22;;;-143.60;80.92
68329;BME280;55182;56.864;60.554;2022-12-18T08:08:32;77658.25;;;-143.60;80.92
68329;BME280;55182;56.864;60.554;2022-12-18T08:10:57;77654.25;;;-143.60;80.94
68329;BME280;55182;56.864;60.554;2022-12-18T08:13:23;77650.22;;;-143.60;81.02
68329;BME280;55182;56.864;60.554;2022-12-18T08:16:22;77642.19;;;-143.60;80.92
68329;BME280;55182;56.864;60.554;2022-12-18T08:18:40;77630.13;;;-143.60;80.79
68329;BME280;55182;56.864;60.554;2022-12-18T08:21:16;77626.09;;;-143.60;80.82
68329;BME280;55182;56.864;60.554;2022-12-18T08:23:42;77614.03;;;-143.60;81.08
68329;BME280;55182;56.864;60.554;2022-12-18T08:26:08;77608.00;;;-143.60;81.08
68329;BME280;55182;56.864;60.554;2022-12-18T08:28:33;77608.00;;;-143.60;80.95
68329;BME280;55182;56.864;60.554;2022-12-18T08:30:59;77606.00;;;-143.60;80.97
68329;BME280;55182;56.864;60.554;2022-12-18T08:33:25;77599.97;;;-143.60;81.17
68329;BME280;55182;56.864;60.554;2022-12-18T08:35:50;77591.94;;;-143.60;81.21
68329;BME280;55182;56.864;60.554;2022-12-18T08:38:16;77585.91;;;-143.60;81.42
68329;BME280;55182;56.864;60.554;2022-12-18T08:40:41;77577.84;;;-143.60;81.32
68329;BME280;55182;56.864;60.554;2022-12-18T08:43:07;77561.78;;;-143.60;81.36
68329;BME280;55182;56.864;60.554;2022-12-18T08:45:34;77557.75;;;-143.60;81.65
68329;BME280;55182;56.864;60.554;2022-12-18T08:48:00;77549.72;;;-143.60;81.72
68329;BME280;55182;56.864;60.554;2022-12-18T08:50:25;77529.59;;;-143.60;81.44
68329;BME280;55182;56.864;60.554;2022-12-18T08:52:50;77531.63;;;-143.60;81.36
68329;BME280;55182;56.864;60.554;2022-12-18T08:55:16;77533.63;;;-143.60;80.97
68329;BME280;55182;56.864;60.554;2022-12-18T08:57:41;77519.56;;;-143.60;81.07
68329;BME280;55182;56.864;60.554;2022-12-18T09:00:07;77513.53;;;-143.60;81.19
68329;BME280;55182;56.864;60.554;2022-12-18T09:02:33;77501.47;;;-143.60;81.06
68329;BME280;55182;56.864;60.554;2022-12-18T09:04:58;77499.47;;;-143.60;81.00
68329;BME280;55182;56.864;60.554;2022-12-18T09:07:23;77489.41;;;-143.60;80.90
68329;BME280;55182;56.864;60.554;2022-12-18T09:09:49;77483.38;;;-143.60;80.81
68329;BME280;55182;56.864;60.554;2022-12-18T09:12:14;77483.38;;;-143.60;81.08
68329;BME280;55182;56.864;60.554;2022-12-18T09:14:40;77485.38;;;-143.60;80.92
68329;BME280;55182;56.864;60.554;2022-12-18T09:17:05;77483.38;;;-143.60;80.91
68329;BME280;55182;56.864;60.554;2022-12-18T09:19:30;77485.38;;;-143.60;80.88
68329;BME280;55182;56.864;60.554;2022-12-18T09:21:56;77481.38;;;-143.60;81.07
68329;BME280;55182;56.864;60.554;2022-12-18T09:24:21;77481.38;;;-143.60;81.26
68329;BME280;55182;56.864;60.554;2022-12-18T09:26:47;77487.41;;;-143.60;81.47
68329;BME280;55182;56.864;60.554;2022-12-18T09:29:12;77485.38;;;-143.60;81.42
68329;BME280;55182;56.864;60.554;2022-12-18T09:31:38;77485.38;;;-143.60;81.64
68329;BME280;55182;56.864;60.554;2022-12-18T09:34:03;77477.34;;;-143.60;82.01
68329;BME280;55182;56.864;60.554;2022-12-18T09:36:29;77473.31;;;-143.60;81.93
68329;BME280;55182;56.864;60.554;2022-12-18T09:38:54;77461.25;;;-143.60;81.98
68329;BME280;55182;56.864;60.554;2022-12-18T09:43:52;77453.22;;;-143.60;82.18
68329;BME280;55182;56.864;60.554;2022-12-18T09:46:23;77449.19;;;-143.60;82.26
68329;BME280;55182;56.864;60.554;2022-12-18T09:48:52;77445.19;;;-143.60;82.48
68329;BME280;55182;56.864;60.554;2022-12-18T09:51:21;77443.16;;;-143.60;82.29
68329;BME280;55182;56.864;60.554;2022-12-18T09:54:07;77443.16;;;-143.60;82.30
68329;BME280;55182;56.864;60.554;2022-12-18T09:56:37;77429.09;;;-143.60;82.30
68329;BME280;55182;56.864;60.554;2022-12-18T09:59:04;77421.06;;;-143.60;82.58
68329;BME280;55182;56.864;60.554;2022-12-18T10:01:30;77417.03;;;-143.60;82.51
68329;BME280;55182;56.864;60.554;2022-12-18T10:03:57;77411.00;;;-143.60;82.55
68329;BME280;55182;56.864;60.554;2022-12-18T10:11:40;77396.94;;;-143.60;82.61
68329;BME280;55182;56.864;60.554;2022-12-18T10:16:56;77388.91;;;-143.60;82.63
68329;BME280;55182;56.864;60.554;2022-12-18T10:22:02;77400.97;;;-143.60;82.80
68329;BME280;55182;56.864;60.554;2022-12-18T10:27:06;77388.91;;;-143.60;82.92
68329;BME280;55182;56.864;60.554;2022-12-18T10:29:33;77384.88;;;-143.60;83.05
68329;BME280;55182;56.864;60.554;2022-12-18T10:31:58;77382.88;;;-143.60;83.17
68329;BME280;55182;56.864;60.554;2022-12-18T10:34:24;77382.88;;;-143.60;83.54
68329;BME280;55182;56.864;60.554;2022-12-18T10:36:50;77382.88;;;-143.60;83.60
68329;BME280;55182;56.864;60.554;2022-12-18T10:39:24;77376.84;;;-143.60;83.68
68329;BME280;55182;56.864;60.554;2022-12-18T10:41:50;77370.81;;;-143.60;83.93
68329;BME280;55182;56.864;60.554;2022-12-18T10:44:17;77360.75;;;-143.60;83.89
68329;BME280;55182;56.864;60.554;2022-12-18T10:46:43;77348.69;;;-143.60;84.12
68329;BME280;55182;56.864;60.554;2022-12-18T10:49:18;77350.72;;;-143.60;84.09
68329;BME280;55182;56.864;60.554;2022-12-18T10:51:44;77338.66;;;-143.60;84.26
68329;BME280;55182;56.864;60.554;2022-12-18T10:54:20;77330.59;;;-143.60;84.45
68329;BME280;55182;56.864;60.554;2022-12-18T10:56:46;77328.59;;;-143.60;84.65
68329;BME280;55182;56.864;60.554;2022-12-18T10:59:15;77336.63;;;-143.60;85.17
68329;BME280;55182;56.864;60.554;2022-12-18T11:01:57;77340.66;;;-143.60;85.21
68329;BME280;55182;56.864;60.554;2022-12-18T11:04:26;77336.63;;;-143.60;85.26
68329;BME280;55182;56.864;60.554;2022-12-18T11:06:57;77326.59;;;-143.60;85.74
68329;BME280;55182;56.864;60.554;2022-12-18T11:09:27;77326.59;;;-143.60;85.78
68329;BME280;55182;56.864;60.554;2022-12-18T11:11:57;77316.53;;;-143.60;86.11
68329;BME280;55182;56.864;60.554;2022-12-18T11:14:24;77312.50;;;-143.60;86.04
68329;BME280;55182;56.864;60.554;2022-12-18T11:16:50;77308.50;;;-143.60;86.37
68329;BME280;55182;56.864;60.554;2022-12-18T11:19:59;77304.47;;;-143.60;86.47
68329;BME280;55182;56.864;60.554;2022-12-18T11:22:19;77292.41;;;-143.60;86.51
68329;BME280;55182;56.864;60.554;2022-12-18T11:24:51;77278.34;;;-143.60;86.45
68329;BME280;55182;56.864;60.554;2022-12-18T11:27:17;77272.31;;;-143.60;86.55
68329;BME280;55182;56.864;60.554;2022-12-18T11:29:43;77272.31;;;-143.60;86.75
68329;BME280;55182;56.864;60.554;2022-12-18T11:32:21;77260.25;;;-143.60;86.79
68329;BME280;55182;56.864;60.554;2022-12-18T11:34:51;77252.22;;;-143.60;86.98
68329;BME280;55182;56.864;60.554;2022-12-18T11:37:19;77240.16;;;-143.60;86.73
68329;BME280;55182;56.864;60.554;2022-12-18T11:44:52;77222.06;;;-143.60;86.45
68329;BME280;55182;56.864;60.554;2022-12-18T11:50:05;77199.94;;;-143.60;86.86
68329;BME280;55182;56.864;60.554;2022-12-18T11:52:36;77191.91;;;-143.60;86.65
68329;BME280;55182;56.864;60.554;2022-12-18T11:55:13;77187.91;;;-143.60;86.80
68329;BME280;55182;56.864;60.554;2022-12-18T12:07:55;77151.72;;;-143.60;87.01
68329;BME280;55182;56.864;60.554;2022-12-18T12:18:34;77123.56;;;-143.60;87.09
68329;BME280;55182;56.864;60.554;2022-12-18T12:26:22;77097.44;;;-143.60;87.39
68329;BME280;55182;56.864;60.554;2022-12-18T12:29:02;77095.44;;;-143.60;87.44
68329;BME280;55182;56.864;60.554;2022-12-18T12:34:23;77075.34;;;-143.60;87.47
68329;BME280;55182;56.864;60.554;2022-12-18T12:39:18;77051.22;;;-143.60;87.64
68329;BME280;55182;56.864;60.554;2022-12-18T12:41:47;77035.13;;;-143.60;87.63
68329;BME280;55182;56.864;60.554;2022-12-18T12:44:14;77033.13;;;-143.60;87.76
68329;BME280;55182;56.864;60.554;2022-12-18T12:46:41;77027.09;;;-143.60;87.49
68329;BME280;55182;56.864;60.554;2022-12-18T12:49:20;77011.00;;;-143.60;87.61
68329;BME280;55182;56.864;60.554;2022-12-18T12:51:47;77011.00;;;-143.60;87.60
68329;BME280;55182;56.864;60.554;2022-12-18T12:54:19;76990.91;;;-143.60;87.62
68329;BME280;55182;56.864;60.554;2022-12-18T12:56:48;76990.91;;;-143.60;87.44
68329;BME280;55182;56.864;60.554;2022-12-18T12:59:21;76984.88;;;-143.60;87.41
68329;BME280;55182;56.864;60.554;2022-12-18T13:01:58;76980.88;;;-143.60;87.48
68329;BME280;55182;56.864;60.554;2022-12-18T13:07:03;76966.81;;;-143.60;87.61
68329;BME280;55182;56.864;60.554;2022-12-18T13:09:31;76958.75;;;-143.60;87.57
68329;BME280;55182;56.864;60.554;2022-12-18T13:11:57;76948.72;;;-143.60;87.66
68329;BME280;55182;56.864;60.554;2022-12-18T13:14:34;76946.69;;;-143.60;87.61
68329;BME280;55182;56.864;60.554;2022-12-18T13:19:43;76924.59;;;-143.60;87.49
68329;BME280;55182;56.864;60.554;2022-12-18T13:22:25;76910.53;;;-143.60;87.55
68329;BME280;55182;56.864;60.554;2022-12-18T13:24:53;76914.53;;;-143.60;87.68
68329;BME280;55182;56.864;60.554;2022-12-18T13:35:41;76886.41;;;-143.60;88.12
68329;BME280;55182;56.864;60.554;2022-12-18T13:41:03;76874.34;;;-143.60;88.37
68329;BME280;55182;56.864;60.554;2022-12-18T13:43:37;76862.28;;;-143.60;88.23
68329;BME280;55182;56.864;60.554;2022-12-18T13:46:18;76858.25;;;-143.60;88.45
68329;BME280;55182;56.864;60.554;2022-12-18T13:51:36;76834.16;;;-143.60;88.66
68329;BME280;55182;56.864;60.554;2022-12-18T13:57:22;76820.06;;;-143.60;88.55
68329;BME280;55182;56.864;60.554;2022-12-18T13:59:49;76806.00;;;-143.60;88.58
68329;BME280;55182;56.864;60.554;2022-12-18T14:02:16;76804.00;;;-143.60;88.70
68329;BME280;55182;56.864;60.554;2022-12-18T14:04:44;76793.94;;;-143.60;88.54
68329;BME280;55182;56.864;60.554;2022-12-18T14:07:21;76783.91;;;-143.60;88.68
68329;BME280;55182;56.864;60.554;2022-12-18T14:09:49;76781.91;;;-143.60;88.79